sensor_id;sensor_type;location;lat;lon;timestamp;P1;durP1;ratioP1;P2;durP2;ratioP2
703;SDS011;335;48.694;9.120;2023-12-22T00:00:08;2.60;;;0.87;;
703;SDS011;335;48.694;9.120;2023-12-22T00:02:33;1.60;;;1.40;;
703;SDS011;335;48.694;9.120;2023-12-22T00:04:59;1.20;;;0.73;;
703;SDS011;335;48.694;9.120;2023-12-22T00:07:24;3.53;;;1.40;;
703;SDS011;335;48.694;9.120;2023-12-22T00:09:49;1.30;;;1.20;;
703;SDS011;335;48.694;9.120;2023-12-22T00:12:15;2.50;;;1.43;;
703;SDS011;335;48.694;9.120;2023-12-22T00:14:40;2.43;;;0.97;;
703;SDS011;335;48.694;9.120;2023-12-22T00:17:05;1.77;;;1.47;;
703;SDS011;335;48.694;9.120;2023-12-22T00:19:31;2.50;;;1.10;;
703;SDS011;335;48.694;9.120;2023-12-22T00:21:57;1.67;;;1.17;;
703;SDS011;335;48.694;9.120;2023-12-22T00:24:23;1.80;;;1.33;;
703;SDS011;335;48.694;9.120;2023-12-22T00:26:48;2.63;;;1.40;;
703;SDS011;335;48.694;9.120;2023-12-22T00:29:14;2.40;;;1.27;;
703;SDS011;335;48.694;9.120;2023-12-22T00:31:39;2.40;;;0.70;;
703;SDS011;335;48.694;9.120;2023-12-22T00:34:04;2.83;;;1.50;;
703;SDS011;335;48.694;9.120;2023-12-22T00:36:30;1.67;;;1.57;;
703;SDS011;335;48.694;9.120;2023-12-22T00:38:55;4.47;;;1.30;;
703;SDS011;335;48.694;9.120;2023-12-22T00:41:20;3.47;;;1.30;;
703;SDS011;335;48.694;9.120;2023-12-22T00:43:46;3.30;;;1.23;;
703;SDS011;335;48.694;9.120;2023-12-22T00:46:12;1.57;;;0.70;;
703;SDS011;335;48.694;9.120;2023-12-22T00:48:38;1.30;;;1.20;;
703;SDS011;335;48.694;9.120;2023-12-22T00:51:03;0.93;;;0.70;;
703;SDS011;335;48.694;9.120;2023-12-22T00:53:30;1.47;;;1.03;;
703;SDS011;335;48.694;9.120;2023-12-22T00:55:55;2.03;;;0.70;;
703;SDS011;335;48.694;9.120;2023-12-22T00:58:20;1.93;;;0.73;;
703;SDS011;335;48.694;9.120;2023-12-22T01:00:46;3.30;;;0.97;;
703;SDS011;335;48.694;9.120;2023-12-22T01:03:12;1.80;;;0.90;;
703;SDS011;335;48.694;9.120;2023-12-22T01:05:38;2.87;;;1.33;;
703;SDS011;335;48.694;9.120;2023-12-22T01:08:03;1.00;;;0.60;;
703;SDS011;335;48.694;9.120;2023-12-22T01:10:29;1.10;;;1.10;;
703;SDS011;335;48.694;9.120;2023-12-22T01:12:54;4.37;;;1.10;;
703;SDS011;335;48.694;9.120;2023-12-22T01:15:19;1.27;;;1.10;;
703;SDS011;335;48.694;9.120;2023-12-22T01:17:44;4.20;;;1.13;;
703;SDS011;335;48.694;9.120;2023-12-22T01:20:10;1.00;;;0.90;;
703;SDS011;335;48.694;9.120;2023-12-22T01:22:35;1.00;;;0.90;;
703;SDS011;335;48.694;9.120;2023-12-22T01:25:03;2.00;;;0.80;;
703;SDS011;335;48.694;9.120;2023-12-22T01:27:29;4.20;;;1.03;;
703;SDS011;335;48.694;9.120;2023-12-22T01:29:55;3.53;;;1.40;;
703;SDS011;335;48.694;9.120;2023-12-22T01:32:21;2.50;;;0.90;;
703;SDS011;335;48.694;9.120;2023-12-22T01:34:46;3.03;;;1.00;;
703;SDS011;335;48.694;9.120;2023-12-22T01:37:11;1.90;;;1.20;;
703;SDS011;335;48.694;9.120;2023-12-22T01:39:37;1.53;;;0.80;;
703;SDS011;335;48.694;9.120;2023-12-22T01:42:02;3.20;;;0.87;;
703;SDS011;335;48.694;9.120;2023-12-22T01:44:28;1.03;;;0.63;;
703;SDS011;335;48.694;9.120;2023-12-22T01:46:53;0.50;;;0.47;;
703;SDS011;335;48.694;9.120;2023-12-22T01:49:18;1.43;;;0.70;;
703;SDS011;335;48.694;9.120;2023-12-22T01:51:45;1.27;;;0.67;;
703;SDS011;335;48.694;9.120;2023-12-22T01:54:10;1.00;;;0.47;;
703;SDS011;335;48.694;9.120;2023-12-22T01:56:37;1.13;;;0.40;;
703;SDS011;335;48.694;9.120;2023-12-22T01:59:02;1.47;;;0.50;;
703;SDS011;335;48.694;9.120;2023-12-22T02:01:28;2.07;;;0.90;;
703;SDS011;335;48.694;9.120;2023-12-22T02:03:53;1.87;;;0.77;;
703;SDS011;335;48.694;9.120;2023-12-22T02:06:19;1.43;;;0.50;;
703;SDS011;335;48.694;9.120;2023-12-22T02:08:48;0.90;;;0.47;;
703;SDS011;335;48.694;9.120;2023-12-22T02:11:14;0.70;;;0.50;;
703;SDS011;335;48.694;9.120;2023-12-22T02:13:40;1.70;;;0.77;;
703;SDS011;335;48.694;9.120;2023-12-22T02:16:19;2.70;;;0.57;;
703;SDS011;335;48.694;9.120;2023-12-22T02:18:47;0.80;;;0.40;;
703;SDS011;335;48.694;9.120;2023-12-22T02:21:14;0.60;;;0.50;;
703;SDS011;335;48.694;9.120;2023-12-22T02:23:39;1.90;;;0.53;;
703;SDS011;335;48.694;9.120;2023-12-22T02:29:01;1.37;;;0.40;;
703;SDS011;335;48.694;9.120;2023-12-22T02:31:36;0.83;;;0.63;;
703;SDS011;335;48.694;9.120;2023-12-22T02:34:07;1.33;;;0.40;;
703;SDS011;335;48.694;9.120;2023-12-22T02:36:33;1.50;;;0.50;;
703;SDS011;335;48.694;9.120;2023-12-22T02:39:01;2.00;;;1.00;;
703;SDS011;335;48.694;9.120;2023-12-22T02:41:26;1.20;;;0.93;;
703;SDS011;335;48.694;9.120;2023-12-22T02:43:52;5.40;;;1.20;;
703;SDS011;335;48.694;9.120;2023-12-22T02:46:17;1.33;;;0.80;;
703;SDS011;335;48.694;9.120;2023-12-22T02:48:43;2.63;;;0.80;;
703;SDS011;335;48.694;9.120;2023-12-22T02:51:08;3.03;;;0.70;;
703;SDS011;335;48.694;9.120;2023-12-22T02:53:33;1.00;;;0.90;;
703;SDS011;335;48.694;9.120;2023-12-22T02:55:59;3.07;;;0.90;;
703;SDS011;335;48.694;9.120;2023-12-22T02:58:24;1.73;;;1.10;;
703;SDS011;335;48.694;9.120;2023-12-22T03:00:49;2.20;;;1.10;;
703;SDS011;335;48.694;9.120;2023-12-22T03:03:15;2.10;;;0.80;;
703;SDS011;335;48.694;9.120;2023-12-22T03:05:40;2.10;;;0.93;;
703;SDS011;335;48.694;9.120;2023-12-22T03:08:05;1.73;;;1.57;;
703;SDS011;335;48.694;9.120;2023-12-22T03:10:31;3.17;;;0.93;;
703;SDS011;335;48.694;9.120;2023-12-22T03:12:56;1.77;;;0.77;;
703;SDS011;335;48.694;9.120;2023-12-22T03:15:21;4.07;;;0.97;;
703;SDS011;335;48.694;9.120;2023-12-22T03:17:47;0.60;;;0.50;;
703;SDS011;335;48.694;9.120;2023-12-22T03:20:12;1.30;;;1.10;;
703;SDS011;335;48.694;9.120;2023-12-22T03:22:37;4.10;;;0.97;;
703;SDS011;335;48.694;9.120;2023-12-22T03:25:03;1.83;;;0.60;;
703;SDS011;335;48.694;9.120;2023-12-22T03:27:28;3.00;;;0.80;;
703;SDS011;335;48.694;9.120;2023-12-22T03:29:53;4.03;;;0.50;;
703;SDS011;335;48.694;9.120;2023-12-22T03:32:19;1.47;;;0.70;;
703;SDS011;335;48.694;9.120;2023-12-22T03:34:44;0.60;;;0.50;;
703;SDS011;335;48.694;9.120;2023-12-22T03:37:10;1.70;;;0.53;;
703;SDS011;335;48.694;9.120;2023-12-22T03:39:35;4.50;;;0.93;;
703;SDS011;335;48.694;9.120;2023-12-22T03:42:00;2.63;;;0.70;;
703;SDS011;335;48.694;9.120;2023-12-22T03:44:27;2.10;;;0.90;;
703;SDS011;335;48.694;9.120;2023-12-22T03:46:52;1.47;;;0.73;;
703;SDS011;335;48.694;9.120;2023-12-22T03:49:18;4.40;;;1.23;;
703;SDS011;335;48.694;9.120;2023-12-22T03:51:44;4.97;;;1.17;;
703;SDS011;335;48.694;9.120;2023-12-22T03:54:09;2.23;;;0.70;;
703;SDS011;335;48.694;9.120;2023-12-22T03:56:35;1.53;;;0.83;;
703;SDS011;335;48.694;9.120;2023-12-22T03:59:00;2.63;;;0.90;;
703;SDS011;335;48.694;9.120;2023-12-22T04:01:25;4.30;;;1.30;;
703;SDS011;335;48.694;9.120;2023-12-22T04:03:51;2.17;;;0.83;;
703;SDS011;335;48.694;9.120;2023-12-22T04:06:16;1.07;;;0.93;;
703;SDS011;335;48.694;9.120;2023-12-22T04:08:41;2.83;;;1.83;;
703;SDS011;335;48.694;9.120;2023-12-22T04:11:07;3.50;;;1.30;;
703;SDS011;335;48.694;9.120;2023-12-22T04:13:32;2.40;;;1.23;;
703;SDS011;335;48.694;9.120;2023-12-22T04:15:58;1.40;;;0.80;;
703;SDS011;335;48.694;9.120;2023-12-22T04:18:23;1.67;;;1.50;;
703;SDS011;335;48.694;9.120;2023-12-22T04:20:48;2.57;;;0.90;;
703;SDS011;335;48.694;9.120;2023-12-22T04:23:16;1.93;;;1.27;;
703;SDS011;335;48.694;9.120;2023-12-22T04:25:41;3.40;;;1.13;;
703;SDS011;335;48.694;9.120;2023-12-22T04:28:07;3.13;;;1.47;;
703;SDS011;335;48.694;9.120;2023-12-22T04:30:32;0.70;;;0.67;;
703;SDS011;335;48.694;9.120;2023-12-22T04:32:57;3.03;;;1.00;;
703;SDS011;335;48.694;9.120;2023-12-22T04:35:23;1.43;;;1.03;;
703;SDS011;335;48.694;9.120;2023-12-22T04:37:48;3.27;;;1.63;;
703;SDS011;335;48.694;9.120;2023-12-22T04:40:13;2.03;;;1.07;;
703;SDS011;335;48.694;9.120;2023-12-22T04:42:39;2.80;;;1.00;;
703;SDS011;335;48.694;9.120;2023-12-22T04:45:04;1.60;;;0.83;;
703;SDS011;335;48.694;9.120;2023-12-22T04:47:30;3.23;;;1.23;;
703;SDS011;335;48.694;9.120;2023-12-22T04:49:55;1.00;;;0.67;;
703;SDS011;335;48.694;9.120;2023-12-22T04:52:20;3.77;;;0.80;;
703;SDS011;335;48.694;9.120;2023-12-22T04:54:45;1.30;;;0.70;;
703;SDS011;335;48.694;9.120;2023-12-22T04:57:11;2.17;;;0.73;;
703;SDS011;335;48.694;9.120;2023-12-22T04:59:36;1.97;;;1.03;;
703;SDS011;335;48.694;9.120;2023-12-22T05:02:01;2.63;;;0.97;;
703;SDS011;335;48.694;9.120;2023-12-22T05:04:27;1.53;;;0.87;;
703;SDS011;335;48.694;9.120;2023-12-22T05:06:53;1.97;;;0.77;;
703;SDS011;335;48.694;9.120;2023-12-22T05:09:18;2.00;;;0.90;;
703;SDS011;335;48.694;9.120;2023-12-22T05:11:43;2.63;;;1.10;;
703;SDS011;335;48.694;9.120;2023-12-22T05:14:10;2.23;;;0.60;;
703;SDS011;335;48.694;9.120;2023-12-22T05:16:36;1.33;;;0.90;;
703;SDS011;335;48.694;9.120;2023-12-22T05:19:01;4.37;;;1.37;;
703;SDS011;335;48.694;9.120;2023-12-22T05:21:26;4.27;;;1.50;;
703;SDS011;335;48.694;9.120;2023-12-22T05:23:53;2.93;;;1.83;;
703;SDS011;335;48.694;9.120;2023-12-22T05:26:19;1.17;;;1.17;;
703;SDS011;335;48.694;9.120;2023-12-22T05:28:45;6.37;;;2.17;;
703;SDS011;335;48.694;9.120;2023-12-22T05:31:10;4.10;;;1.47;;
703;SDS011;335;48.694;9.120;2023-12-22T05:33:36;2.10;;;1.10;;
703;SDS011;335;48.694;9.120;2023-12-22T05:36:01;2.00;;;1.20;;
703;SDS011;335;48.694;9.120;2023-12-22T05:38:27;6.07;;;1.60;;
703;SDS011;335;48.694;9.120;2023-12-22T05:40:52;3.17;;;0.90;;
703;SDS011;335;48.694;9.120;2023-12-22T05:43:18;5.47;;;1.60;;
703;SDS011;335;48.694;9.120;2023-12-22T05:45:43;6.40;;;1.87;;
703;SDS011;335;48.694;9.120;2023-12-22T05:48:08;3.17;;;1.63;;
703;SDS011;335;48.694;9.120;2023-12-22T05:50:34;6.63;;;1.57;;
703;SDS011;335;48.694;9.120;2023-12-22T05:52:59;7.10;;;1.50;;
703;SDS011;335;48.694;9.120;2023-12-22T05:55:25;3.93;;;1.33;;
703;SDS011;335;48.694;9.120;2023-12-22T05:57:50;8.63;;;1.57;;
703;SDS011;335;48.694;9.120;2023-12-22T06:00:15;4.30;;;1.33;;
703;SDS011;335;48.694;9.120;2023-12-22T06:02:42;3.90;;;1.67;;
703;SDS011;335;48.694;9.120;2023-12-22T06:05:07;4.13;;;2.03;;
703;SDS011;335;48.694;9.120;2023-12-22T06:07:32;6.40;;;1.77;;
703;SDS011;335;48.694;9.120;2023-12-22T06:09:58;2.93;;;1.27;;
703;SDS011;335;48.694;9.120;2023-12-22T06:12:23;5.57;;;2.30;;
703;SDS011;335;48.694;9.120;2023-12-22T06:14:48;5.03;;;1.50;;
703;SDS011;335;48.694;9.120;2023-12-22T06:17:14;5.13;;;1.37;;
703;SDS011;335;48.694;9.120;2023-12-22T06:19:39;3.60;;;1.53;;
703;SDS011;335;48.694;9.120;2023-12-22T06:22:04;3.07;;;1.43;;
703;SDS011;335;48.694;9.120;2023-12-22T06:24:30;2.23;;;1.20;;
703;SDS011;335;48.694;9.120;2023-12-22T06:26:56;4.00;;;1.83;;
703;SDS011;335;48.694;9.120;2023-12-22T06:29:21;6.37;;;1.50;;
703;SDS011;335;48.694;9.120;2023-12-22T06:31:46;3.03;;;1.07;;
703;SDS011;335;48.694;9.120;2023-12-22T06:34:16;4.90;;;1.30;;
703;SDS011;335;48.694;9.120;2023-12-22T06:36:41;6.83;;;1.53;;
703;SDS011;335;48.694;9.120;2023-12-22T06:39:07;5.43;;;1.33;;
703;SDS011;335;48.694;9.120;2023-12-22T06:41:33;2.13;;;1.00;;
703;SDS011;335;48.694;9.120;2023-12-22T06:43:58;2.37;;;1.57;;
703;SDS011;335;48.694;9.120;2023-12-22T06:46:26;8.83;;;1.50;;
703;SDS011;335;48.694;9.120;2023-12-22T06:48:52;2.27;;;1.33;;
703;SDS011;335;48.694;9.120;2023-12-22T06:51:22;2.33;;;1.13;;
703;SDS011;335;48.694;9.120;2023-12-22T06:53:51;3.33;;;1.23;;
703;SDS011;335;48.694;9.120;2023-12-22T06:56:17;2.20;;;1.20;;
703;SDS011;335;48.694;9.120;2023-12-22T06:58:53;3.47;;;1.00;;
703;SDS011;335;48.694;9.120;2023-12-22T07:01:24;5.17;;;1.57;;
703;SDS011;335;48.694;9.120;2023-12-22T07:03:50;3.17;;;1.43;;
703;SDS011;335;48.694;9.120;2023-12-22T07:06:16;8.90;;;2.23;;
703;SDS011;335;48.694;9.120;2023-12-22T07:11:43;4.93;;;2.63;;
703;SDS011;335;48.694;9.120;2023-12-22T07:14:13;5.30;;;2.50;;
703;SDS011;335;48.694;9.120;2023-12-22T07:16:38;4.40;;;1.17;;
703;SDS011;335;48.694;9.120;2023-12-22T07:19:04;4.00;;;1.90;;
703;SDS011;335;48.694;9.120;2023-12-22T07:21:30;4.13;;;1.47;;
703;SDS011;335;48.694;9.120;2023-12-22T07:23:56;5.80;;;1.40;;
703;SDS011;335;48.694;9.120;2023-12-22T07:26:21;3.33;;;1.23;;
703;SDS011;335;48.694;9.120;2023-12-22T07:28:49;6.57;;;1.60;;
703;SDS011;335;48.694;9.120;2023-12-22T07:31:16;3.97;;;1.10;;
703;SDS011;335;48.694;9.120;2023-12-22T07:33:42;3.00;;;1.50;;
703;SDS011;335;48.694;9.120;2023-12-22T07:36:08;5.03;;;1.87;;
703;SDS011;335;48.694;9.120;2023-12-22T07:38:33;5.40;;;1.57;;
703;SDS011;335;48.694;9.120;2023-12-22T07:40:59;3.50;;;1.50;;
703;SDS011;335;48.694;9.120;2023-12-22T07:43:24;3.77;;;1.40;;
703;SDS011;335;48.694;9.120;2023-12-22T07:45:50;5.27;;;1.83;;
703;SDS011;335;48.694;9.120;2023-12-22T07:48:16;1.93;;;1.40;;
703;SDS011;335;48.694;9.120;2023-12-22T07:50:42;3.30;;;1.10;;
703;SDS011;335;48.694;9.120;2023-12-22T07:53:07;5.63;;;1.43;;
703;SDS011;335;48.694;9.120;2023-12-22T07:55:33;2.33;;;0.90;;
703;SDS011;335;48.694;9.120;2023-12-22T07:57:59;4.63;;;2.43;;
703;SDS011;335;48.694;9.120;2023-12-22T08:00:24;6.40;;;1.80;;
703;SDS011;335;48.694;9.120;2023-12-22T08:02:49;2.53;;;1.40;;
703;SDS011;335;48.694;9.120;2023-12-22T08:05:15;3.63;;;1.27;;
703;SDS011;335;48.694;9.120;2023-12-22T08:07:40;4.30;;;1.63;;
703;SDS011;335;48.694;9.120;2023-12-22T08:10:06;10.87;;;1.77;;
703;SDS011;335;48.694;9.120;2023-12-22T08:12:31;7.73;;;2.37;;
703;SDS011;335;48.694;9.120;2023-12-22T08:14:57;4.47;;;1.40;;
703;SDS011;335;48.694;9.120;2023-12-22T08:17:23;5.47;;;1.50;;
703;SDS011;335;48.694;9.120;2023-12-22T08:19:49;4.20;;;1.53;;
703;SDS011;335;48.694;9.120;2023-12-22T08:22:14;4.63;;;1.77;;
703;SDS011;335;48.694;9.120;2023-12-22T08:24:40;8.40;;;2.93;;
703;SDS011;335;48.694;9.120;2023-12-22T08:27:06;4.37;;;1.60;;
703;SDS011;335;48.694;9.120;2023-12-22T08:29:32;15.47;;;3.03;;
703;SDS011;335;48.694;9.120;2023-12-22T08:31:57;8.73;;;2.27;;
703;SDS011;335;48.694;9.120;2023-12-22T08:34:23;5.60;;;2.20;;
703;SDS011;335;48.694;9.120;2023-12-22T08:36:48;8.67;;;2.30;;
703;SDS011;335;48.694;9.120;2023-12-22T08:39:13;9.43;;;2.90;;
703;SDS011;335;48.694;9.120;2023-12-22T08:41:38;5.50;;;1.90;;
703;SDS011;335;48.694;9.120;2023-12-22T08:44:04;5.10;;;2.00;;
703;SDS011;335;48.694;9.120;2023-12-22T08:46:30;4.93;;;2.77;;
703;SDS011;335;48.694;9.120;2023-12-22T08:48:56;3.47;;;1.57;;
703;SDS011;335;48.694;9.120;2023-12-22T08:51:21;6.90;;;2.00;;
703;SDS011;335;48.694;9.120;2023-12-22T08:53:47;4.67;;;1.93;;
703;SDS011;335;48.694;9.120;2023-12-22T08:56:12;9.33;;;1.90;;
703;SDS011;335;48.694;9.120;2023-12-22T08:58:37;5.00;;;2.30;;
703;SDS011;335;48.694;9.120;2023-12-22T09:01:03;2.47;;;1.30;;
703;SDS011;335;48.694;9.120;2023-12-22T09:03:28;5.03;;;1.50;;
703;SDS011;335;48.694;9.120;2023-12-22T09:05:57;3.43;;;1.43;;
703;SDS011;335;48.694;9.120;2023-12-22T09:08:22;4.73;;;1.70;;
703;SDS011;335;48.694;9.120;2023-12-22T09:10:47;2.40;;;1.73;;
703;SDS011;335;48.694;9.120;2023-12-22T09:13:13;8.17;;;2.00;;
703;SDS011;335;48.694;9.120;2023-12-22T09:15:38;6.77;;;2.03;;
703;SDS011;335;48.694;9.120;2023-12-22T09:18:03;4.90;;;1.50;;
703;SDS011;335;48.694;9.120;2023-12-22T09:20:29;4.37;;;2.17;;
703;SDS011;335;48.694;9.120;2023-12-22T09:22:55;4.57;;;1.83;;
703;SDS011;335;48.694;9.120;2023-12-22T09:25:20;8.23;;;2.13;;
703;SDS011;335;48.694;9.120;2023-12-22T09:27:47;6.67;;;1.67;;
703;SDS011;335;48.694;9.120;2023-12-22T09:30:12;6.20;;;1.63;;
703;SDS011;335;48.694;9.120;2023-12-22T09:32:38;9.40;;;2.00;;
703;SDS011;335;48.694;9.120;2023-12-22T09:35:03;4.63;;;2.03;;
703;SDS011;335;48.694;9.120;2023-12-22T09:37:29;6.30;;;2.23;;
703;SDS011;335;48.694;9.120;2023-12-22T09:39:54;5.03;;;1.57;;
703;SDS011;335;48.694;9.120;2023-12-22T09:42:21;5.30;;;2.30;;
703;SDS011;335;48.694;9.120;2023-12-22T09:44:46;6.27;;;1.93;;
703;SDS011;335;48.694;9.120;2023-12-22T09:47:14;6.87;;;2.10;;
703;SDS011;335;48.694;9.120;2023-12-22T09:49:41;4.97;;;2.50;;
703;SDS011;335;48.694;9.120;2023-12-22T09:52:07;10.83;;;2.90;;
703;SDS011;335;48.694;9.120;2023-12-22T09:54:33;7.33;;;2.40;;
703;SDS011;335;48.694;9.120;2023-12-22T09:56:59;5.37;;;2.40;;
703;SDS011;335;48.694;9.120;2023-12-22T09:59:25;10.30;;;2.57;;
703;SDS011;335;48.694;9.120;2023-12-22T10:01:52;5.90;;;2.27;;
703;SDS011;335;48.694;9.120;2023-12-22T10:04:17;4.33;;;2.87;;
703;SDS011;335;48.694;9.120;2023-12-22T10:06:43;5.03;;;1.90;;
703;SDS011;335;48.694;9.120;2023-12-22T10:09:10;11.23;;;2.70;;
703;SDS011;335;48.694;9.120;2023-12-22T10:11:39;12.20;;;3.30;;
703;SDS011;335;48.694;9.120;2023-12-22T10:14:08;5.37;;;2.50;;
703;SDS011;335;48.694;9.120;2023-12-22T10:16:34;6.03;;;2.37;;
703;SDS011;335;48.694;9.120;2023-12-22T10:19:01;6.10;;;2.33;;
703;SDS011;335;48.694;9.120;2023-12-22T10:21:26;4.30;;;2.17;;
703;SDS011;335;48.694;9.120;2023-12-22T10:23:52;8.07;;;3.27;;
703;SDS011;335;48.694;9.120;2023-12-22T10:26:17;9.27;;;2.27;;
703;SDS011;335;48.694;9.120;2023-12-22T10:28:42;7.00;;;2.37;;
703;SDS011;335;48.694;9.120;2023-12-22T10:31:08;8.73;;;2.57;;
703;SDS011;335;48.694;9.120;2023-12-22T10:33:34;8.80;;;2.67;;
703;SDS011;335;48.694;9.120;2023-12-22T10:35:59;5.90;;;2.23;;
703;SDS011;335;48.694;9.120;2023-12-22T10:38:25;11.40;;;2.47;;
703;SDS011;335;48.694;9.120;2023-12-22T10:40:57;7.60;;;2.27;;
703;SDS011;335;48.694;9.120;2023-12-22T10:43:23;8.57;;;2.33;;
703;SDS011;335;48.694;9.120;2023-12-22T10:45:51;6.70;;;1.80;;
703;SDS011;335;48.694;9.120;2023-12-22T10:48:17;5.57;;;2.30;;
703;SDS011;335;48.694;9.120;2023-12-22T10:50:43;8.70;;;2.17;;
703;SDS011;335;48.694;9.120;2023-12-22T10:53:09;4.60;;;2.20;;
703;SDS011;335;48.694;9.120;2023-12-22T10:55:36;3.40;;;1.43;;
703;SDS011;335;48.694;9.120;2023-12-22T10:58:02;6.20;;;1.97;;
703;SDS011;335;48.694;9.120;2023-12-22T11:00:28;3.97;;;1.30;;
703;SDS011;335;48.694;9.120;2023-12-22T11:02:56;5.10;;;1.50;;
703;SDS011;335;48.694;9.120;2023-12-22T11:05:25;2.20;;;0.97;;
703;SDS011;335;48.694;9.120;2023-12-22T11:07:53;1.90;;;0.97;;
703;SDS011;335;48.694;9.120;2023-12-22T11:10:20;7.03;;;1.67;;
703;SDS011;335;48.694;9.120;2023-12-22T11:12:46;1.17;;;0.83;;
703;SDS011;335;48.694;9.120;2023-12-22T11:15:12;1.80;;;0.80;;
703;SDS011;335;48.694;9.120;2023-12-22T11:17:38;2.07;;;1.20;;
703;SDS011;335;48.694;9.120;2023-12-22T11:20:05;4.27;;;1.30;;
703;SDS011;335;48.694;9.120;2023-12-22T11:22:31;1.67;;;1.07;;
703;SDS011;335;48.694;9.120;2023-12-22T11:24:57;2.47;;;1.20;;
703;SDS011;335;48.694;9.120;2023-12-22T11:27:23;1.33;;;1.07;;
703;SDS011;335;48.694;9.120;2023-12-22T11:29:51;2.67;;;0.93;;
703;SDS011;335;48.694;9.120;2023-12-22T11:32:17;2.93;;;1.40;;
703;SDS011;335;48.694;9.120;2023-12-22T11:34:43;4.20;;;1.23;;
703;SDS011;335;48.694;9.120;2023-12-22T11:37:11;3.33;;;1.03;;
703;SDS011;335;48.694;9.120;2023-12-22T11:39:37;0.70;;;0.60;;
703;SDS011;335;48.694;9.120;2023-12-22T11:42:03;3.00;;;1.20;;
703;SDS011;335;48.694;9.120;2023-12-22T11:44:29;3.57;;;1.10;;
703;SDS011;335;48.694;9.120;2023-12-22T11:47:04;2.57;;;0.80;;
703;SDS011;335;48.694;9.120;2023-12-22T11:49:33;3.87;;;1.23;;
703;SDS011;335;48.694;9.120;2023-12-22T11:52:09;4.23;;;1.50;;
703;SDS011;335;48.694;9.120;2023-12-22T11:55:10;1.73;;;0.80;;
703;SDS011;335;48.694;9.120;2023-12-22T11:59:57;2.33;;;0.87;;
703;SDS011;335;48.694;9.120;2023-12-22T12:02:23;2.70;;;1.07;;
703;SDS011;335;48.694;9.120;2023-12-22T12:04:50;2.40;;;1.33;;
703;SDS011;335;48.694;9.120;2023-12-22T12:10:10;2.50;;;1.20;;
703;SDS011;335;48.694;9.120;2023-12-22T12:13:05;4.67;;;1.70;;
703;SDS011;335;48.694;9.120;2023-12-22T12:15:34;1.83;;;1.40;;
703;SDS011;335;48.694;9.120;2023-12-22T12:18:00;1.03;;;1.03;;
703;SDS011;335;48.694;9.120;2023-12-22T12:20:26;1.57;;;1.00;;
703;SDS011;335;48.694;9.120;2023-12-22T12:22:52;3.17;;;0.93;;
703;SDS011;335;48.694;9.120;2023-12-22T12:25:18;1.10;;;0.73;;
703;SDS011;335;48.694;9.120;2023-12-22T12:27:48;2.17;;;1.03;;
703;SDS011;335;48.694;9.120;2023-12-22T12:30:13;2.10;;;0.70;;
703;SDS011;335;48.694;9.120;2023-12-22T12:32:41;1.53;;;0.57;;
703;SDS011;335;48.694;9.120;2023-12-22T12:35:08;0.60;;;0.60;;
703;SDS011;335;48.694;9.120;2023-12-22T12:37:33;1.50;;;0.93;;
703;SDS011;335;48.694;9.120;2023-12-22T12:39:59;2.00;;;0.60;;
703;SDS011;335;48.694;9.120;2023-12-22T12:42:28;2.43;;;0.80;;
703;SDS011;335;48.694;9.120;2023-12-22T12:44:55;1.40;;;0.63;;
703;SDS011;335;48.694;9.120;2023-12-22T12:47:21;1.00;;;0.60;;
703;SDS011;335;48.694;9.120;2023-12-22T12:49:46;1.20;;;1.10;;
703;SDS011;335;48.694;9.120;2023-12-22T12:52:12;3.80;;;0.90;;
703;SDS011;335;48.694;9.120;2023-12-22T12:54:38;0.90;;;0.50;;
703;SDS011;335;48.694;9.120;2023-12-22T12:57:04;0.90;;;0.30;;
703;SDS011;335;48.694;9.120;2023-12-22T12:59:30;0.60;;;0.30;;
703;SDS011;335;48.694;9.120;2023-12-22T13:01:55;0.30;;;0.30;;
703;SDS011;335;48.694;9.120;2023-12-22T13:04:22;0.47;;;0.30;;
703;SDS011;335;48.694;9.120;2023-12-22T13:06:47;0.40;;;0.30;;
703;SDS011;335;48.694;9.120;2023-12-22T13:09:14;0.40;;;0.40;;
703;SDS011;335;48.694;9.120;2023-12-22T13:11:40;0.50;;;0.43;;
703;SDS011;335;48.694;9.120;2023-12-22T13:14:07;0.37;;;0.20;;
703;SDS011;335;48.694;9.120;2023-12-22T13:16:33;0.30;;;0.20;;
703;SDS011;335;48.694;9.120;2023-12-22T13:18:59;0.40;;;0.30;;
703;SDS011;335;48.694;9.120;2023-12-22T13:21:25;0.40;;;0.30;;
703;SDS011;335;48.694;9.120;2023-12-22T13:26:38;0.30;;;0.30;;
703;SDS011;335;48.694;9.120;2023-12-22T13:29:05;0.40;;;0.30;;
703;SDS011;335;48.694;9.120;2023-12-22T13:31:35;0.40;;;0.17;;
703;SDS011;335;48.694;9.120;2023-12-22T13:34:02;0.40;;;0.20;;
703;SDS011;335;48.694;9.120;2023-12-22T13:36:27;0.33;;;0.20;;
703;SDS011;335;48.694;9.120;2023-12-22T13:38:53;0.30;;;0.20;;
703;SDS011;335;48.694;9.120;2023-12-22T13:41:19;0.30;;;0.20;;
703;SDS011;335;48.694;9.120;2023-12-22T13:43:44;0.40;;;0.30;;
703;SDS011;335;48.694;9.120;2023-12-22T13:46:13;0.53;;;0.53;;
703;SDS011;335;48.694;9.120;2023-12-22T13:48:41;0.30;;;0.20;;
703;SDS011;335;48.694;9.120;2023-12-22T13:51:06;0.70;;;0.20;;
703;SDS011;335;48.694;9.120;2023-12-22T13:53:32;0.30;;;0.10;;
703;SDS011;335;48.694;9.120;2023-12-22T13:55:58;0.30;;;0.23;;
703;SDS011;335;48.694;9.120;2023-12-22T13:58:24;0.30;;;0.17;;
703;SDS011;335;48.694;9.120;2023-12-22T14:00:50;0.30;;;0.20;;
703;SDS011;335;48.694;9.120;2023-12-22T14:03:16;0.30;;;0.20;;
703;SDS011;335;48.694;9.120;2023-12-22T14:05:45;0.30;;;0.23;;
703;SDS011;335;48.694;9.120;2023-12-22T14:08:10;1.10;;;0.40;;
703;SDS011;335;48.694;9.120;2023-12-22T14:10:35;0.50;;;0.37;;
703;SDS011;335;48.694;9.120;2023-12-22T14:13:01;0.30;;;0.20;;
703;SDS011;335;48.694;9.120;2023-12-22T14:15:27;0.63;;;0.40;;
703;SDS011;335;48.694;9.120;2023-12-22T14:17:54;0.97;;;0.20;;
703;SDS011;335;48.694;9.120;2023-12-22T14:20:20;0.93;;;0.30;;
703;SDS011;335;48.694;9.120;2023-12-22T14:22:45;2.10;;;0.20;;
703;SDS011;335;48.694;9.120;2023-12-22T14:25:11;0.30;;;0.20;;
703;SDS011;335;48.694;9.120;2023-12-22T14:27:36;0.30;;;0.20;;
703;SDS011;335;48.694;9.120;2023-12-22T14:30:02;0.30;;;0.20;;
703;SDS011;335;48.694;9.120;2023-12-22T14:32:27;0.40;;;0.20;;
703;SDS011;335;48.694;9.120;2023-12-22T14:34:54;0.30;;;0.20;;
703;SDS011;335;48.694;9.120;2023-12-22T14:37:20;0.30;;;0.20;;
703;SDS011;335;48.694;9.120;2023-12-22T14:39:46;0.80;;;0.20;;
703;SDS011;335;48.694;9.120;2023-12-22T14:42:11;0.30;;;0.20;;
703;SDS011;335;48.694;9.120;2023-12-22T14:44:37;0.30;;;0.20;;
703;SDS011;335;48.694;9.120;2023-12-22T14:47:03;0.30;;;0.20;;
703;SDS011;335;48.694;9.120;2023-12-22T14:49:29;0.20;;;0.10;;
703;SDS011;335;48.694;9.120;2023-12-22T14:51:55;0.30;;;0.20;;
703;SDS011;335;48.694;9.120;2023-12-22T14:54:22;0.30;;;0.30;;
703;SDS011;335;48.694;9.120;2023-12-22T14:56:47;0.30;;;0.20;;
703;SDS011;335;48.694;9.120;2023-12-22T14:59:14;0.40;;;0.30;;
703;SDS011;335;48.694;9.120;2023-12-22T15:01:39;0.40;;;0.20;;
703;SDS011;335;48.694;9.120;2023-12-22T15:04:05;1.33;;;0.93;;
703;SDS011;335;48.694;9.120;2023-12-22T15:06:31;1.70;;;0.70;;
703;SDS011;335;48.694;9.120;2023-12-22T15:08:56;0.30;;;0.30;;
703;SDS011;335;48.694;9.120;2023-12-22T15:11:24;0.37;;;0.30;;
703;SDS011;335;48.694;9.120;2023-12-22T15:13:50;0.40;;;0.40;;
703;SDS011;335;48.694;9.120;2023-12-22T15:16:15;0.40;;;0.40;;
703;SDS011;335;48.694;9.120;2023-12-22T15:18:40;1.03;;;0.20;;
703;SDS011;335;48.694;9.120;2023-12-22T15:21:06;1.00;;;0.20;;
703;SDS011;335;48.694;9.120;2023-12-22T15:23:31;0.30;;;0.30;;
703;SDS011;335;48.694;9.120;2023-12-22T15:25:57;0.30;;;0.20;;
703;SDS011;335;48.694;9.120;2023-12-22T15:28:22;0.30;;;0.20;;
703;SDS011;335;48.694;9.120;2023-12-22T15:30:48;0.30;;;0.20;;
703;SDS011;335;48.694;9.120;2023-12-22T15:33:13;0.30;;;0.30;;
703;SDS011;335;48.694;9.120;2023-12-22T15:35:38;0.40;;;0.33;;
703;SDS011;335;48.694;9.120;2023-12-22T15:38:04;0.30;;;0.20;;
703;SDS011;335;48.694;9.120;2023-12-22T15:40:29;0.30;;;0.20;;
703;SDS011;335;48.694;9.120;2023-12-22T15:42:55;0.30;;;0.30;;
703;SDS011;335;48.694;9.120;2023-12-22T15:45:20;0.30;;;0.20;;
703;SDS011;335;48.694;9.120;2023-12-22T15:47:45;1.23;;;0.20;;
703;SDS011;335;48.694;9.120;2023-12-22T15:50:11;0.40;;;0.20;;